Time;durP1;ratioP1;P1;durP2;ratioP2;P2;SDS_P1;SDS_P2;PMS_P1;PMS_P2;Temp;Humidity;BMP_temperature;BMP_pressure;BME280_temperature;BME280_humidity;BME280_pressure;Samples;Min_cycle;Max_cycle;Signal;HPM_P1;HPM_P2
2021/10/26 00:00:08;;;;;;;0.10;0.10;;;;;;;12.90;95.00;100940.69;5086903;28;20052;-67
2021/10/26 00:02:35;;;;;;;0.10;0.10;;;;;;;12.91;95.08;100948.44;5085527;28;20028;-67
2021/10/26 00:05:00;;;;;;;0.03;0.03;;;;;;;12.92;95.20;100949.22;5089081;28;20035;-67
2021/10/26 00:07:26;;;;;;;0.40;0.40;;;;;;;12.91;95.09;100944.97;5087800;28;20043;-67
2021/10/26 00:09:51;;;;;;;0.05;0.05;;;;;;;12.95;94.92;100946.56;5068198;28;20043;-67
2021/10/26 00:12:17;;;;;;;0.00;0.00;;;;;;;12.93;95.30;100940.72;5065086;28;20452;-67
2021/10/26 00:14:42;;;;;;;0.13;0.10;;;;;;;12.97;95.49;100946.22;5061786;28;20020;-68
2021/10/26 00:17:08;;;;;;;0.55;0.55;;;;;;;12.94;95.64;100942.31;5066853;28;20056;-67
2021/10/26 00:19:33;;;;;;;0.30;0.30;;;;;;;13.00;94.90;100942.78;5066500;28;20043;-67
2021/10/26 00:21:59;;;;;;;0.10;0.10;;;;;;;12.93;95.29;100934.56;5067383;28;20044;-67
2021/10/26 00:24:25;;;;;;;0.43;0.43;;;;;;;12.93;95.75;100937.28;5064749;28;20120;-67
2021/10/26 00:26:51;;;;;;;0.08;0.08;;;;;;;12.94;95.85;100936.91;5067349;28;20146;-67
2021/10/26 00:29:21;;;;;;;0.30;0.30;;;;;;;12.91;96.06;100937.63;5062285;28;20031;-67
2021/10/26 00:31:46;;;;;;;0.25;0.25;;;;;;;12.99;95.95;100941.22;5048662;28;20409;-66
2021/10/26 00:34:12;;;;;;;0.00;0.00;;;;;;;12.97;96.43;100938.88;5046979;28;20025;-67
2021/10/26 00:36:38;;;;;;;0.00;0.00;;;;;;;12.97;96.70;100933.47;5067150;28;20699;-68
2021/10/26 00:39:04;;;;;;;0.30;0.30;;;;;;;12.93;97.35;100934.56;5060312;28;20028;-67
2021/10/26 00:41:30;;;;;;;0.10;0.10;;;;;;;12.87;97.76;100942.22;5069235;28;20062;-68
2021/10/26 00:43:56;;;;;;;0.00;0.00;;;;;;;12.89;97.91;100945.31;5049642;28;20458;-68
2021/10/26 00:46:30;;;;;;;1.38;0.95;;;;;;;12.96;97.40;100928.44;5071300;28;20025;-68
2021/10/26 00:48:57;;;;;;;0.00;0.00;;;;;;;12.79;98.46;100928.94;5072231;28;20115;-68
2021/10/26 00:51:23;;;;;;;0.20;0.20;;;;;;;12.87;98.22;100936.03;5070031;28;21958;-67
2021/10/26 00:53:50;;;;;;;0.00;0.00;;;;;;;12.81;98.37;100930.16;5050934;28;20028;-67
2021/10/26 00:56:16;;;;;;;0.10;0.10;;;;;;;12.84;98.68;100929.41;5056903;28;20064;-68
2021/10/26 00:58:45;;;;;;;0.03;0.03;;;;;;;12.81;98.79;100932.06;5051131;28;20107;-68
2021/10/26 01:01:10;;;;;;;0.00;0.00;;;;;;;12.75;98.90;100934.28;5073672;28;20505;-68
2021/10/26 01:03:37;;;;;;;0.20;0.20;;;;;;;12.90;98.56;100930.66;5068000;28;20059;-68
2021/10/26 01:06:03;;;;;;;0.30;0.20;;;;;;;12.92;98.54;100939.19;5052274;28;20032;-68
2021/10/26 01:08:30;;;;;;;0.10;0.10;;;;;;;12.85;99.28;100936.38;5054146;28;20033;-68
2021/10/26 01:10:57;;;;;;;0.25;0.20;;;;;;;12.83;99.57;100927.06;5072660;28;20028;-67
2021/10/26 01:13:23;;;;;;;0.00;0.00;;;;;;;12.78;99.83;100932.78;5048725;28;20029;-68
2021/10/26 01:15:54;;;;;;;0.32;0.32;;;;;;;12.76;100.00;100943.16;5053445;28;20028;-68
2021/10/26 01:18:38;;;;;;;0.20;0.20;;;;;;;12.76;100.00;100940.47;5044902;28;20072;-67
2021/10/26 01:21:03;;;;;;;0.30;0.15;;;;;;;12.83;100.00;100940.59;5052874;28;20082;-68
2021/10/26 01:23:29;;;;;;;0.00;0.00;;;;;;;12.83;100.00;100937.88;5070573;28;20024;-67
2021/10/26 01:25:55;;;;;;;0.20;0.20;;;;;;;12.80;100.00;100946.69;5070033;28;20101;-67
2021/10/26 01:28:22;;;;;;;0.00;0.00;;;;;;;12.82;100.00;100939.81;5043109;28;20029;-68
2021/10/26 01:30:48;;;;;;;0.00;0.00;;;;;;;12.79;100.00;100934.34;5072724;28;20108;-67
2021/10/26 01:33:33;;;;;;;0.10;0.10;;;;;;;12.79;100.00;100945.16;5066082;28;20519;-68
2021/10/26 01:36:08;;;;;;;0.43;0.43;;;;;;;12.78;100.00;100932.78;5050914;28;20158;-67
2021/10/26 01:38:33;;;;;;;0.10;0.10;;;;;;;12.75;100.00;100937.00;5067993;28;20158;-68
2021/10/26 01:40:59;;;;;;;0.50;0.50;;;;;;;12.73;100.00;100938.50;5050357;28;20024;-67
2021/10/26 01:43:25;;;;;;;0.00;0.00;;;;;;;12.70;100.00;100931.88;5045714;28;20032;-67
2021/10/26 01:45:51;;;;;;;0.00;0.00;;;;;;;12.79;100.00;100928.94;5054494;28;20093;-67
2021/10/26 01:48:27;;;;;;;0.20;0.20;;;;;;;12.76;100.00;100937.75;5070252;28;20032;-67
2021/10/26 01:50:53;;;;;;;0.22;0.17;;;;;;;12.81;100.00;100932.06;5045577;28;20435;-67
2021/10/26 01:53:20;;;;;;;0.30;0.30;;;;;;;12.75;100.00;100936.22;5050993;28;20056;-67
2021/10/26 01:55:45;;;;;;;0.22;0.22;;;;;;;12.78;100.00;100932.78;5040944;28;20425;-67
2021/10/26 01:58:13;;;;;;;0.22;0.22;;;;;;;12.80;100.00;100931.28;5047507;28;20028;-67
2021/10/26 02:00:57;;;;;;;0.17;0.15;;;;;;;12.80;100.00;100933.97;5065416;28;20053;-67
2021/10/26 02:03:22;;;;;;;0.05;0.05;;;;;;;12.71;100.00;100925.34;5053288;28;20685;-67
2021/10/26 02:05:49;;;;;;;0.15;0.15;;;;;;;12.70;100.00;100927.25;5041637;28;20087;-66
2021/10/26 02:08:14;;;;;;;0.40;0.40;;;;;;;12.73;100.00;100935.78;5051911;28;20040;-67
2021/10/26 02:10:40;;;;;;;0.20;0.20;;;;;;;12.71;100.00;100933.44;5050410;28;20036;-67
2021/10/26 02:13:06;;;;;;;1.50;0.68;;;;;;;12.76;100.00;100940.47;5069184;28;20111;-66
2021/10/26 02:15:31;;;;;;;0.20;0.20;;;;;;;12.75;100.00;100925.41;5048130;28;20028;-68
2021/10/26 02:17:58;;;;;;;0.55;0.55;;;;;;;12.66;100.00;100936.44;5046267;28;20492;-68
2021/10/26 02:20:23;;;;;;;0.20;0.15;;;;;;;12.66;100.00;100934.53;5050004;28;20043;-67
2021/10/26 02:22:49;;;;;;;0.08;0.05;;;;;;;12.74;100.00;100929.25;5052518;28;20020;-67
2021/10/26 02:25:14;;;;;;;0.45;0.45;;;;;;;12.70;100.00;100938.06;5051241;28;20037;-68
2021/10/26 02:27:41;;;;;;;0.10;0.10;;;;;;;12.72;100.00;100932.28;5064121;28;20526;-67
2021/10/26 02:30:06;;;;;;;0.45;0.45;;;;;;;12.61;100.00;100937.53;5052221;28;20111;-68
2021/10/26 02:32:32;;;;;;;0.10;0.10;;;;;;;12.67;100.00;100927.22;5045195;28;20037;-67
2021/10/26 02:34:57;;;;;;;0.25;0.25;;;;;;;12.74;100.00;100930.00;5045818;28;20021;-68
2021/10/26 02:37:23;;;;;;;0.20;0.20;;;;;;;12.74;100.00;100938.13;5039558;28;20082;-67
2021/10/26 02:39:49;;;;;;;0.10;0.10;;;;;;;12.75;100.00;100928.88;5063432;28;20099;-66
2021/10/26 02:42:14;;;;;;;0.30;0.30;;;;;;;12.67;100.00;100930.69;5037838;28;20090;-67
2021/10/26 02:44:40;;;;;;;0.17;0.17;;;;;;;12.70;100.00;100932.66;5041106;28;20037;-66
2021/10/26 02:47:05;;;;;;;0.30;0.28;;;;;;;12.66;100.00;100922.94;5065121;28;20024;-66
2021/10/26 02:49:31;;;;;;;0.28;0.28;;;;;;;12.64;100.00;100923.28;5041620;28;20040;-66
2021/10/26 02:51:59;;;;;;;0.13;0.13;;;;;;;12.65;100.00;100924.88;5043323;28;20100;-66
2021/10/26 02:54:24;;;;;;;0.20;0.20;;;;;;;12.67;100.00;100919.09;5052171;28;20032;-66
2021/10/26 02:56:50;;;;;;;0.25;0.25;;;;;;;12.74;100.00;100924.59;5062158;28;20031;-67
2021/10/26 02:59:18;;;;;;;0.40;0.40;;;;;;;12.69;100.00;100925.72;5052224;28;20043;-66
2021/10/26 03:01:45;;;;;;;0.60;0.40;;;;;;;12.76;100.00;100937.75;5043734;28;20544;-67
2021/10/26 03:04:11;;;;;;;0.35;0.30;;;;;;;12.69;100.00;100922.22;5049523;28;20024;-67
2021/10/26 03:06:36;;;;;;;0.30;0.30;;;;;;;12.71;100.00;100917.25;5052625;28;20039;-66
2021/10/26 03:09:02;;;;;;;0.00;0.00;;;;;;;12.70;100.00;100921.84;5065078;28;20146;-66
2021/10/26 03:11:31;;;;;;;0.10;0.10;;;;;;;12.72;100.00;100920.72;5047374;28;20051;-66
2021/10/26 03:13:57;;;;;;;0.75;0.75;;;;;;;12.64;100.00;100917.09;5049391;28;20029;-66
2021/10/26 03:16:22;;;;;;;0.75;0.75;;;;;;;12.66;100.00;100921.00;5046987;28;20020;-68
2021/10/26 03:18:49;;;;;;;0.60;0.60;;;;;;;12.68;100.00;100923.34;5050908;28;20496;-66
2021/10/26 03:21:14;;;;;;;0.22;0.22;;;;;;;12.62;100.00;100924.78;5065864;28;20036;-66
2021/10/26 03:23:40;;;;;;;1.30;1.20;;;;;;;12.58;100.00;100922.03;5055346;28;20024;-66
2021/10/26 03:26:06;;;;;;;0.20;0.20;;;;;;;12.68;100.00;100926.06;5070053;28;20052;-67
2021/10/26 03:28:32;;;;;;;0.05;0.05;;;;;;;12.62;100.00;100922.88;5046870;28;20060;-67
2021/10/26 03:31:01;;;;;;;0.47;0.47;;;;;;;12.58;100.00;100916.63;5059914;28;20036;-67
2021/10/26 03:33:54;;;;;;;0.38;0.35;;;;;;;12.59;100.00;100920.91;5053714;28;20028;-65
2021/10/26 03:36:19;;;;;;;0.38;0.38;;;;;;;12.62;100.00;100925.59;5068300;28;20549;-66
2021/10/26 03:38:47;;;;;;;0.13;0.13;;;;;;;12.66;100.00;100921.00;5061552;28;20032;-66
2021/10/26 03:41:13;;;;;;;0.28;0.28;;;;;;;12.65;100.00;100922.16;5053239;28;20096;-66
2021/10/26 03:43:39;;;;;;;0.28;0.25;;;;;;;12.65;100.00;100924.09;5046304;28;20020;-66
2021/10/26 03:46:08;;;;;;;0.65;0.65;;;;;;;12.72;100.00;100918.03;5048205;28;20021;-66
2021/10/26 03:48:35;;;;;;;0.25;0.25;;;;;;;12.70;100.00;100916.44;5054026;28;20119;-66
2021/10/26 03:51:01;;;;;;;0.85;0.30;;;;;;;12.68;100.00;100917.94;5048314;28;20123;-66
2021/10/26 03:53:28;;;;;;;0.47;0.47;;;;;;;12.59;100.00;100920.13;5066087;28;20033;-67
2021/10/26 03:55:53;;;;;;;1.40;0.70;;;;;;;12.57;100.00;100922.41;5051214;28;20058;-65
2021/10/26 03:58:20;;;;;;;1.58;1.48;;;;;;;12.56;100.00;100918.91;5045653;28;20039;-66
2021/10/26 04:00:49;;;;;;;1.03;0.83;;;;;;;12.54;100.00;100912.34;5047616;28;20519;-67
2021/10/26 04:03:27;;;;;;;0.20;0.20;;;;;;;12.50;100.00;100912.25;5064928;28;20496;-67
2021/10/26 04:11:10;;;;;;;0.30;0.30;;;;;;;12.39;100.00;100915.91;5064378;28;20072;-67
2021/10/26 04:13:36;;;;;;;0.00;0.00;;;;;;;12.38;100.00;100920.56;5049933;28;20033;-66
2021/10/26 04:16:02;;;;;;;0.10;0.10;;;;;;;12.34;100.00;100918.94;5047097;28;20021;-66
2021/10/26 04:18:28;;;;;;;1.00;0.98;;;;;;;12.30;100.00;100918.88;5047049;28;20492;-66
2021/10/26 04:20:54;;;;;;;0.38;0.38;;;;;;;12.26;100.00;100917.22;5041972;28;20025;-66
2021/10/26 04:23:21;;;;;;;4.03;0.38;;;;;;;12.20;100.00;100919.47;5066852;28;20035;-66
2021/10/26 04:25:46;;;;;;;0.57;0.52;;;;;;;12.19;100.00;100925.22;5049612;28;20051;-66
2021/10/26 04:28:12;;;;;;;0.30;0.30;;;;;;;12.14;100.00;100920.88;5053115;28;20404;-67
2021/10/26 04:30:38;;;;;;;0.25;0.25;;;;;;;12.09;100.00;100926.59;5032645;28;20032;-66
2021/10/26 04:33:06;;;;;;;0.73;0.73;;;;;;;12.09;100.00;100934.69;5044488;28;20098;-66
2021/10/26 04:35:34;;;;;;;0.85;0.60;;;;;;;12.15;100.00;100927.06;5046977;28;20025;-66
2021/10/26 04:38:01;;;;;;;0.28;0.28;;;;;;;12.12;100.00;100933.97;5044656;28;20618;-66
2021/10/26 04:40:27;;;;;;;0.93;0.68;;;;;;;12.19;100.00;100934.09;5046198;28;20132;-66
2021/10/26 04:42:58;;;;;;;0.30;0.30;;;;;;;12.25;100.00;100942.69;5048465;28;20034;-66
2021/10/26 04:45:24;;;;;;;1.40;0.50;;;;;;;12.26;100.00;100936.94;5040283;28;20044;-68
2021/10/26 04:47:51;;;;;;;0.10;0.10;;;;;;;12.32;100.00;100937.41;5050893;28;20028;-66
2021/10/26 04:50:18;;;;;;;1.02;0.98;;;;;;;12.35;100.00;100944.81;5068578;28;20028;-66
2021/10/26 04:52:44;;;;;;;0.38;0.38;;;;;;;12.38;100.00;100941.38;5047624;28;20043;-66
2021/10/26 04:55:10;;;;;;;0.30;0.30;;;;;;;12.40;100.00;100942.59;5047884;28;20032;-66
2021/10/26 04:57:36;;;;;;;0.30;0.30;;;;;;;12.46;100.00;100945.75;5051532;28;20051;-68
2021/10/26 05:00:15;;;;;;;0.10;0.10;;;;;;;12.41;100.00;100952.25;5047672;28;20032;-66
2021/10/26 05:02:42;;;;;;;0.10;0.10;;;;;;;12.42;100.00;100948.41;5051372;28;20044;-67
2021/10/26 05:05:08;;;;;;;0.25;0.25;;;;;;;12.49;100.00;100958.53;5051194;28;20035;-66
2021/10/26 05:07:34;;;;;;;0.20;0.20;;;;;;;12.54;100.00;100963.66;5064202;28;20463;-67
2021/10/26 05:10:01;;;;;;;0.35;0.35;;;;;;;12.49;100.00;100956.63;5065173;28;20020;-66
2021/10/26 05:12:27;;;;;;;0.20;0.20;;;;;;;12.47;100.00;100958.13;5044388;28;20024;-66
2021/10/26 05:14:55;;;;;;;0.22;0.22;;;;;;;12.51;100.00;100959.75;5042742;28;20032;-66
2021/10/26 05:17:40;;;;;;;0.73;0.43;;;;;;;12.51;100.00;100961.66;5060318;28;20312;-67
2021/10/26 05:20:25;;;;;;;0.52;0.52;;;;;;;12.54;100.00;100955.56;5060379;28;20116;-66
2021/10/26 05:23:29;;;;;;;0.13;0.13;;;;;;;12.51;100.00;100964.38;5063259;28;20070;-66
2021/10/26 05:26:19;;;;;;;0.10;0.10;;;;;;;12.53;100.00;100973.69;5054786;28;20496;-66
2021/10/26 05:28:48;;;;;;;0.77;0.77;;;;;;;12.58;100.00;100976.06;5044205;28;20067;-67
2021/10/26 05:31:16;;;;;;;0.35;0.35;;;;;;;12.54;100.00;100972.53;5060240;28;20032;-66
2021/10/26 05:33:43;;;;;;;0.10;0.10;;;;;;;12.51;100.00;100973.25;5064753;28;20033;-66
2021/10/26 05:36:09;;;;;;;0.10;0.10;;;;;;;12.55;100.00;100973.31;5068166;28;20021;-66
2021/10/26 05:38:35;;;;;;;0.43;0.28;;;;;;;12.57;100.00;100979.16;5062584;28;20578;-67
2021/10/26 05:41:02;;;;;;;0.65;0.22;;;;;;;12.62;100.00;100974.22;5043970;28;20035;-67
2021/10/26 05:43:27;;;;;;;0.90;0.90;;;;;;;12.63;100.00;100975.78;5044424;28;20119;-67
2021/10/26 05:45:57;;;;;;;0.30;0.30;;;;;;;12.65;100.00;100978.13;5048552;28;20033;-67
2021/10/26 05:48:23;;;;;;;0.45;0.45;;;;;;;12.60;100.00;100976.50;5070656;28;20028;-67
2021/10/26 05:50:49;;;;;;;0.55;0.55;;;;;;;12.63;100.00;100980.41;5047488;28;20039;-67
2021/10/26 05:53:15;;;;;;;0.35;0.35;;;;;;;12.65;100.00;100975.44;5067815;28;20497;-66
2021/10/26 05:55:44;;;;;;;0.17;0.17;;;;;;;12.62;100.00;100984.22;5041232;28;20023;-66
2021/10/26 05:58:13;;;;;;;0.13;0.13;;;;;;;12.58;100.00;100978.03;5070477;22;20053;-68
2021/10/26 06:00:42;;;;;;;1.38;1.00;;;;;;;12.63;100.00;100983.09;5022383;28;20037;-68
2021/10/26 06:03:08;;;;;;;1.10;0.30;;;;;;;12.64;100.00;100974.63;5044157;28;20576;-68
2021/10/26 06:05:34;;;;;;;0.22;0.22;;;;;;;12.66;100.00;100985.88;5044025;28;20447;-69
2021/10/26 06:08:00;;;;;;;0.13;0.13;;;;;;;12.66;100.00;100990.47;5030882;28;20091;-69
2021/10/26 06:10:27;;;;;;;0.03;0.03;;;;;;;12.67;100.00;100987.44;5032385;28;20044;-68
2021/10/26 06:13:05;;;;;;;0.90;0.60;;;;;;;12.65;100.00;100995.13;5034518;28;20124;-69
2021/10/26 06:15:31;;;;;;;0.43;0.20;;;;;;;12.64;100.00;100996.25;5050519;28;20048;-68
2021/10/26 06:17:57;;;;;;;0.35;0.35;;;;;;;12.73;100.00;101004.13;5032627;28;20025;-67
2021/10/26 06:20:29;;;;;;;0.50;0.50;;;;;;;12.74;100.00;100999.53;5029485;28;20035;-69
2021/10/26 06:22:55;;;;;;;1.15;0.35;;;;;;;12.74;100.00;100996.81;5032493;28;20123;-68
2021/10/26 06:25:21;;;;;;;0.10;0.10;;;;;;;12.72;100.00;101005.25;5033180;28;20040;-68
2021/10/26 06:28:05;;;;;;;0.40;0.40;;;;;;;12.73;100.00;101006.84;5046233;28;20175;-68
2021/10/26 06:30:32;;;;;;;0.30;0.30;;;;;;;12.79;100.00;101015.41;5031421;28;20029;-68
2021/10/26 06:33:07;;;;;;;0.75;0.55;;;;;;;12.74;100.00;101016.50;5030950;28;20047;-69
2021/10/26 06:35:38;;;;;;;1.23;0.68;;;;;;;12.76;100.00;101010.72;5034673;28;20025;-69
2021/10/26 06:38:04;;;;;;;0.95;0.95;;;;;;;12.79;100.00;101026.22;5030799;28;20040;-70
2021/10/26 06:40:30;;;;;;;0.52;0.52;;;;;;;12.77;100.00;101025.81;5035782;28;20033;-69
2021/10/26 06:43:35;;;;;;;0.40;0.40;;;;;;;12.83;100.00;101035.97;5025347;28;20033;-67
2021/10/26 06:46:19;;;;;;;0.45;0.45;;;;;;;12.88;100.00;101035.66;5029918;28;20056;-68
2021/10/26 06:49:03;;;;;;;0.17;0.17;;;;;;;12.83;100.00;101043.28;5043135;28;20082;-69
2021/10/26 06:51:47;;;;;;;0.63;0.35;;;;;;;12.93;100.00;101042.69;5050714;28;20095;-69
2021/10/26 06:54:31;;;;;;;0.68;0.68;;;;;;;12.87;100.00;101039.53;5031827;28;20056;-71
2021/10/26 06:57:27;;;;;;;0.20;0.20;;;;;;;12.89;100.00;101045.31;5045459;28;20033;-69
2021/10/26 07:00:12;;;;;;;0.28;0.28;;;;;;;12.91;100.00;101042.28;5025847;28;20076;-69
2021/10/26 07:02:57;;;;;;;0.15;0.15;;;;;;;12.87;100.00;101046.84;5050919;28;20048;-68
2021/10/26 07:05:55;;;;;;;0.43;0.43;;;;;;;12.88;100.00;101051.09;5043170;28;20051;-68
2021/10/26 07:08:43;;;;;;;0.43;0.43;;;;;;;12.95;100.00;101056.63;5039582;28;20053;-68
2021/10/26 07:11:46;;;;;;;0.50;0.50;;;;;;;12.95;100.00;101059.34;4965611;28;20070;-68
2021/10/26 07:14:12;;;;;;;0.22;0.22;;;;;;;12.94;100.00;101066.66;4968993;28;20121;-68
2021/10/26 07:16:39;;;;;;;0.50;0.50;;;;;;;12.94;100.00;101069.38;4983739;28;20049;-69
2021/10/26 07:19:05;;;;;;;0.25;0.25;;;;;;;12.96;100.00;101063.59;5040157;28;20036;-70
2021/10/26 07:21:49;;;;;;;1.38;1.20;;;;;;;12.93;100.00;101073.19;5047371;28;20548;-68
2021/10/26 07:24:56;;;;;;;0.30;0.30;;;;;;;13.04;100.00;101070.72;4984780;28;20126;-68
2021/10/26 07:27:24;;;;;;;0.55;0.55;;;;;;;13.02;100.00;101072.97;5021540;28;20041;-68
2021/10/26 07:29:50;;;;;;;0.35;0.35;;;;;;;13.03;100.00;101075.34;5018810;28;20049;-70
2021/10/26 07:32:17;;;;;;;0.40;0.40;;;;;;;13.10;100.00;101085.50;5045097;28;20043;-70
2021/10/26 07:34:42;;;;;;;0.57;0.57;;;;;;;13.04;100.00;101082.31;5049888;28;20032;-69
2021/10/26 07:37:08;;;;;;;0.40;0.40;;;;;;;13.07;100.00;101078.88;5025507;28;20029;-68
2021/10/26 07:39:45;;;;;;;0.52;0.45;;;;;;;13.10;100.00;101083.59;5024066;28;20026;-70
2021/10/26 07:42:14;;;;;;;0.20;0.20;;;;;;;13.14;100.00;101073.59;5035536;28;20032;-68
2021/10/26 07:45:09;;;;;;;1.23;0.70;;;;;;;13.13;100.00;101098.28;5031523;28;20120;-71
2021/10/26 07:47:36;;;;;;;0.05;0.05;;;;;;;13.19;100.00;101092.22;5019778;28;20485;-69
2021/10/26 07:50:07;;;;;;;0.52;0.52;;;;;;;13.15;100.00;101088.69;5027955;28;20033;-68
2021/10/26 07:52:33;;;;;;;0.20;0.20;;;;;;;13.20;100.00;101088.38;5013952;28;20032;-69
2021/10/26 07:55:27;;;;;;;0.10;0.10;;;;;;;13.19;100.00;101088.75;5025002;28;20511;-70
2021/10/26 07:57:58;;;;;;;0.10;0.10;;;;;;;13.18;100.00;101087.94;5027119;28;20059;-69
2021/10/26 08:00:24;;;;;;;0.20;0.20;;;;;;;13.26;100.00;101096.97;5044096;28;20507;-70
2021/10/26 08:02:57;;;;;;;0.20;0.20;;;;;;;13.16;100.00;101095.66;5033150;28;20025;-72
2021/10/26 08:05:41;;;;;;;0.40;0.40;;;;;;;13.18;100.00;101096.06;5043427;28;20523;-69
2021/10/26 08:08:07;;;;;;;3.00;1.17;;;;;;;13.23;100.00;101103.91;5043119;28;20059;-70
2021/10/26 08:10:34;;;;;;;0.10;0.10;;;;;;;13.25;100.00;101108.94;5035256;28;20451;-68
2021/10/26 08:13:02;;;;;;;0.28;0.28;;;;;;;13.34;100.00;101102.13;5030781;28;20033;-69
2021/10/26 08:15:28;;;;;;;1.75;1.02;;;;;;;13.33;100.00;101099.81;5024537;28;20029;-69
2021/10/26 08:17:54;;;;;;;0.40;0.40;;;;;;;13.39;100.00;101106.47;5031704;28;20035;-69
2021/10/26 08:20:20;;;;;;;0.55;0.55;;;;;;;13.39;100.00;101098.34;5025340;28;20382;-69
2021/10/26 08:22:46;;;;;;;0.10;0.10;;;;;;;13.36;100.00;101099.06;5027961;28;20048;-71
2021/10/26 08:25:25;;;;;;;1.20;1.10;;;;;;;13.43;100.00;101088.38;5036404;28;20044;-68
2021/10/26 08:27:57;;;;;;;0.22;0.22;;;;;;;13.49;100.00;101087.69;5040164;28;20429;-71
2021/10/26 08:30:45;;;;;;;0.35;0.35;;;;;;;13.56;100.00;101092.44;5042541;28;20035;-68
2021/10/26 08:35:51;;;;;;;0.60;0.60;;;;;;;13.58;100.00;101098.28;5028699;28;20480;-69
2021/10/26 08:38:18;;;;;;;0.38;0.38;;;;;;;13.59;100.00;101099.81;5031357;28;20386;-70
2021/10/26 08:41:06;;;;;;;0.50;0.50;;;;;;;13.67;100.00;101104.19;5031283;28;20033;-68
2021/10/26 08:43:31;;;;;;;0.17;0.17;;;;;;;13.62;100.00;101096.41;5020221;28;20029;-69
2021/10/26 08:46:03;;;;;;;1.10;0.40;;;;;;;13.58;100.00;101099.06;5031169;28;20400;-69
2021/10/26 08:48:30;;;;;;;0.88;0.38;;;;;;;13.68;100.00;101105.78;5026909;28;20027;-69
2021/10/26 08:51:30;;;;;;;0.32;0.32;;;;;;;13.67;100.00;101103.41;5042243;28;20025;-70
2021/10/26 08:53:57;;;;;;;0.40;0.40;;;;;;;13.68;100.00;101115.81;5027406;28;20393;-69
2021/10/26 08:56:41;;;;;;;0.25;0.25;;;;;;;13.70;100.00;101108.91;5030552;28;20130;-68
2021/10/26 08:59:25;;;;;;;0.25;0.25;;;;;;;13.72;100.00;101111.22;5042171;28;20465;-70
2021/10/26 09:01:58;;;;;;;0.40;0.40;;;;;;;13.76;100.00;101123.69;5029666;28;20029;-68
2021/10/26 09:04:35;;;;;;;0.28;0.28;;;;;;;13.74;100.00;101117.84;5048323;28;20049;-69
2021/10/26 09:07:06;;;;;;;0.45;0.45;;;;;;;13.84;100.00;101116.44;5028546;28;20025;-70
2021/10/26 09:09:36;;;;;;;0.65;0.50;;;;;;;13.84;100.00;101119.16;5028653;28;20597;-69
2021/10/26 09:18:24;;;;;;;0.30;0.20;;;;;;;14.07;100.00;101122.59;5043924;28;20067;-73
2021/10/26 09:20:56;;;;;;;0.57;0.40;;;;;;;13.99;100.00;101110.09;5045139;28;20041;-68
2021/10/26 09:23:51;;;;;;;0.17;0.17;;;;;;;14.11;100.00;101113.34;5014813;28;20051;-69
2021/10/26 09:26:17;;;;;;;0.17;0.17;;;;;;;14.19;100.00;101115.00;5046173;28;20033;-69
2021/10/26 09:28:56;;;;;;;0.73;0.55;;;;;;;14.24;100.00;101113.91;5025323;28;20477;-68
2021/10/26 09:31:27;;;;;;;0.55;0.55;;;;;;;14.23;100.00;101113.13;5029683;28;20480;-68
2021/10/26 09:34:16;;;;;;;0.20;0.20;;;;;;;14.27;100.00;101113.16;5048119;28;20032;-70
2021/10/26 09:36:43;;;;;;;0.20;0.20;;;;;;;14.29;100.00;101117.09;5046568;28;20045;-71
2021/10/26 09:39:12;;;;;;;0.20;0.20;;;;;;;14.34;100.00;101111.34;5048196;28;20036;-71
2021/10/26 09:42:00;;;;;;;0.10;0.10;;;;;;;14.37;100.00;101121.47;5033422;28;20049;-71
2021/10/26 09:44:48;;;;;;;1.63;1.45;;;;;;;14.45;99.64;101125.81;5047931;28;20037;-71
2021/10/26 09:47:19;;;;;;;0.05;0.03;;;;;;;14.53;98.25;101129.41;5051947;28;20555;-71
2021/10/26 09:49:56;;;;;;;0.25;0.15;;;;;;;14.44;98.11;101134.28;5042380;28;20045;-71
2021/10/26 09:52:30;;;;;;;0.40;0.40;;;;;;;14.35;98.20;101123.75;5047852;28;20045;-72
2021/10/26 09:55:05;;;;;;;0.38;0.38;;;;;;;14.52;96.91;101135.19;5043254;28;20033;-71
2021/10/26 09:57:37;;;;;;;0.25;0.25;;;;;;;14.41;97.57;101133.13;5033239;28;20095;-70
2021/10/26 10:00:08;;;;;;;0.00;0.00;;;;;;;14.48;97.25;101142.50;5037881;28;20060;-70
2021/10/26 10:02:40;;;;;;;0.40;0.40;;;;;;;14.52;95.79;101143.31;5046109;28;20044;-71
2021/10/26 10:05:08;;;;;;;0.10;0.10;;;;;;;14.40;95.81;101139.69;5050935;28;20067;-71
2021/10/26 10:07:36;;;;;;;0.10;0.10;;;;;;;14.40;95.48;101130.78;5043937;28;20040;-70
2021/10/26 10:10:11;;;;;;;0.13;0.13;;;;;;;14.41;93.98;101132.34;5048076;28;20519;-71
2021/10/26 10:12:44;;;;;;;0.38;0.10;;;;;;;14.37;94.88;101134.22;5033948;28;20060;-71
2021/10/26 10:15:11;;;;;;;0.50;0.25;;;;;;;14.41;94.23;101143.97;5016208;28;20116;-71
2021/10/26 10:17:37;;;;;;;0.22;0.22;;;;;;;14.37;95.21;101137.72;5048714;28;20029;-70
2021/10/26 10:20:05;;;;;;;0.03;0.03;;;;;;;14.45;95.27;101136.66;5049810;28;20106;-71
2021/10/26 10:22:32;;;;;;;0.10;0.10;;;;;;;14.53;95.75;101134.03;5043770;28;20033;-71
2021/10/26 10:25:00;;;;;;;0.43;0.15;;;;;;;14.58;95.81;101141.81;5034900;28;20063;-71
2021/10/26 10:27:34;;;;;;;0.10;0.10;;;;;;;14.55;95.26;101143.34;5042542;28;20496;-70
2021/10/26 10:30:00;;;;;;;0.00;0.00;;;;;;;14.55;95.48;101143.34;5056249;28;20033;-71
2021/10/26 10:32:31;;;;;;;0.45;0.45;;;;;;;14.59;95.84;101137.97;5046616;28;20020;-70
2021/10/26 10:34:59;;;;;;;0.10;0.10;;;;;;;14.69;95.36;101140.03;5031313;28;20017;-71
2021/10/26 10:37:30;;;;;;;0.30;0.25;;;;;;;14.70;95.53;101144.28;5027726;28;20033;-68
2021/10/26 10:40:03;;;;;;;0.43;0.43;;;;;;;14.92;94.48;101136.03;5039383;28;20032;-68
2021/10/26 10:42:31;;;;;;;0.20;0.20;;;;;;;14.91;94.76;101133.69;5025165;28;20056;-69
2021/10/26 10:44:58;;;;;;;0.35;0.35;;;;;;;15.00;92.73;101142.31;5039318;28;20572;-68
2021/10/26 10:47:33;;;;;;;0.00;0.00;;;;;;;14.93;92.79;101151.16;5050756;28;20112;-68
2021/10/26 10:49:59;;;;;;;0.52;0.20;;;;;;;14.87;92.36;101149.91;5050512;28;20032;-68
2021/10/26 10:52:33;;;;;;;0.57;0.55;;;;;;;14.92;91.94;101143.38;5052969;28;20045;-69
2021/10/26 10:55:01;;;;;;;0.10;0.10;;;;;;;14.88;92.52;101134.44;5049722;28;20444;-68
2021/10/26 10:57:28;;;;;;;0.20;0.20;;;;;;;14.93;92.42;101139.50;5051717;28;20540;-67
2021/10/26 10:59:55;;;;;;;0.30;0.13;;;;;;;15.07;92.61;101137.75;5047088;28;20133;-71
2021/10/26 11:02:25;;;;;;;0.60;0.43;;;;;;;15.24;91.63;101141.75;5056505;28;21667;-70
2021/10/26 11:04:54;;;;;;;0.57;0.32;;;;;;;15.41;91.10;101133.00;5043932;28;20107;-71
2021/10/26 11:07:41;;;;;;;0.25;0.25;;;;;;;15.62;90.15;101130.47;5039663;28;20032;-70
2021/10/26 11:10:07;;;;;;;0.30;0.10;;;;;;;15.75;88.13;101141.81;5044115;28;20108;-71
2021/10/26 11:12:36;;;;;;;0.30;0.22;;;;;;;15.81;86.65;101145.75;5041215;28;20040;-70
2021/10/26 11:15:08;;;;;;;0.00;0.00;;;;;;;15.86;85.69;101135.31;5045782;28;20039;-70
2021/10/26 11:17:39;;;;;;;0.68;0.32;;;;;;;15.92;83.99;101143.88;5041857;28;20432;-70
2021/10/26 11:20:12;;;;;;;4.65;1.85;;;;;;;16.01;84.40;101138.88;5023239;28;20036;-71
2021/10/26 11:23:02;;;;;;;0.35;0.00;;;;;;;16.11;82.57;101151.75;5042805;28;20680;-71
2021/10/26 11:25:27;;;;;;;0.10;0.10;;;;;;;16.21;83.43;101148.31;5042928;28;20071;-71
2021/10/26 11:27:54;;;;;;;0.40;0.40;;;;;;;16.23;83.39;101133.22;5044694;28;20106;-70
2021/10/26 11:30:29;;;;;;;0.10;0.10;;;;;;;16.34;82.90;101135.19;5045448;28;20047;-71
2021/10/26 11:33:13;;;;;;;0.20;0.20;;;;;;;16.34;83.95;101138.69;5045408;28;20033;-70
2021/10/26 11:35:55;;;;;;;1.10;0.40;;;;;;;16.49;82.96;101142.28;5023333;28;20036;-71
2021/10/26 11:38:23;;;;;;;0.43;0.43;;;;;;;16.61;81.50;101148.16;5043947;28;20456;-70
2021/10/26 11:41:17;;;;;;;0.85;0.85;;;;;;;16.59;80.67;101144.28;5047216;28;20041;-70
2021/10/26 11:43:51;;;;;;;0.17;0.17;;;;;;;16.55;81.19;101136.06;5037698;28;20140;-70
2021/10/26 11:46:32;;;;;;;0.73;0.35;;;;;;;16.49;80.67;101134.13;5042368;28;20473;-72
2021/10/26 11:49:07;;;;;;;1.02;0.30;;;;;;;16.49;81.87;101137.59;5040147;28;20035;-66